This is the latest recevied weather packets stored in our database for station/object DB0FN-10. If no packets are shown the sender has not sent any weather packets the latest 10 day(s).
| Time | Temp. | Humidity | Pressure | Rain* | Wind** | Luminosity | Snow |
|---|---|---|---|---|---|---|---|
| 1777546857 | 16.11° C | 28% | 1025.9 hPa | - | - | - | - |
| 1777545957 | 16.11° C | 30% | 1025.7 hPa | - | - | - | - |
| 1777545057 | 14.44° C | 31% | 1026 hPa | - | - | - | - |
| 1777544156 | 16.11° C | 29% | 1026.1 hPa | - | - | - | - |
| 1777543256 | 15.56° C | 29% | 1026 hPa | - | - | - | - |
| 1777542356 | 13.89° C | 33% | 1025.9 hPa | - | - | - | - |
| 1777541456 | 13.33° C | 32% | 1025.9 hPa | - | - | - | - |
| 1777540556 | 13.33° C | 32% | 1025.9 hPa | - | - | - | - |
| 1777539656 | 12.78° C | 33% | 1025.9 hPa | - | - | - | - |
| 1777538756 | 13.33° C | 32% | 1026.1 hPa | - | - | - | - |
| 1777537856 | 12.78° C | 33% | 1025.9 hPa | - | - | - | - |
| 1777536956 | 12.22° C | 33% | 1025.9 hPa | - | - | - | - |
| 1777536056 | 12.22° C | 34% | 1025.9 hPa | - | - | - | - |
| 1777535156 | 11.67° C | 34% | 1025.7 hPa | - | - | - | - |
| 1777534256 | 11.11° C | 35% | 1025.8 hPa | - | - | - | - |
| 1777533356 | 10.56° C | 35% | 1025.7 hPa | - | - | - | - |
| 1777532456 | 10° C | 36% | 1025.7 hPa | - | - | - | - |
| 1777531555 | 10° C | 35% | 1025.7 hPa | - | - | - | - |
| 1777530655 | 9.44° C | 37% | 1025.5 hPa | - | - | - | - |
| 1777529755 | 8.89° C | 37% | 1025.5 hPa | - | - | - | - |
| 1777528855 | 8.89° C | 38% | 1025.2 hPa | - | - | - | - |
| 1777527955 | 8.33° C | 39% | 1025.4 hPa | - | - | - | - |
| 1777527055 | 8.33° C | 40% | 1025.3 hPa | - | - | - | - |
| 1777526155 | 8.33° C | 40% | 1024.9 hPa | - | - | - | - |
| 1777525255 | 7.78° C | 40% | 1024.9 hPa | - | - | - | - |
* Rain since midnight (hover to see other rain measurements)
** Current wind speed in m/s (hover to see current wind gust speed)